createdAt,value
2022-12-15T00:03:38.754Z,94.87
2022-12-15T00:09:01.392Z,95.33
2022-12-15T00:14:23.644Z,95.00
2022-12-15T00:19:46.001Z,94.89
2022-12-15T00:25:07.906Z,95.21
2022-12-15T00:30:30.614Z,95.07
2022-12-15T00:35:52.971Z,95.10
2022-12-15T00:40:59.823Z,94.84
2022-12-15T00:46:23.023Z,94.85
2022-12-15T00:51:45.609Z,94.79
2022-12-15T00:57:07.865Z,94.78
2022-12-15T01:02:29.950Z,94.33
2022-12-15T01:07:52.369Z,94.73
2022-12-15T01:13:14.421Z,94.81
2022-12-15T01:18:36.781Z,95.26
2022-12-15T01:23:41.319Z,95.71
2022-12-15T01:28:44.631Z,95.95
2022-12-15T01:33:47.938Z,95.77
2022-12-15T01:38:54.399Z,95.93
2022-12-15T01:44:24.972Z,96.39
2022-12-15T01:49:31.398Z,96.29
2022-12-15T01:54:45.320Z,96.28
2022-12-15T01:59:56.244Z,95.88
2022-12-15T02:05:01.257Z,96.35
2022-12-15T02:10:07.586Z,96.57
2022-12-15T02:15:48.425Z,97.20
2022-12-15T02:21:05.974Z,97.59
2022-12-15T02:26:26.794Z,97.19
2022-12-15T02:31:50.518Z,97.41
2022-12-15T02:37:06.694Z,97.52
2022-12-15T02:42:11.622Z,97.28
2022-12-15T02:47:14.850Z,97.80
2022-12-15T02:52:36.799Z,97.81
2022-12-15T02:57:49.223Z,97.27
2022-12-15T03:02:55.945Z,98.08
2022-12-15T03:07:59.531Z,98.10
2022-12-15T03:13:02.943Z,98.06
2022-12-15T03:18:06.462Z,98.74
2022-12-15T03:23:09.973Z,98.39
2022-12-15T03:28:13.492Z,98.85
2022-12-15T03:33:17.108Z,98.10
2022-12-15T03:38:21.343Z,97.64
2022-12-15T03:43:24.447Z,98.03
2022-12-15T03:48:27.862Z,98.17
2022-12-15T03:53:31.612Z,98.44
2022-12-15T03:58:35.096Z,98.92
2022-12-15T04:03:38.674Z,99.17
2022-12-15T04:08:42.023Z,99.23
2022-12-15T04:13:45.949Z,98.93
2022-12-15T04:19:09.243Z,99.13
2022-12-15T04:24:31.689Z,99.22
2022-12-15T04:29:54.045Z,99.04
2022-12-15T04:35:16.298Z,98.96
2022-12-15T04:40:38.554Z,98.58
2022-12-15T04:46:00.634Z,99.12
2022-12-15T04:51:23.947Z,99.52
2022-12-15T04:56:46.244Z,99.56
2022-12-15T05:02:12.214Z,99.68
2022-12-15T05:07:34.946Z,99.66
2022-12-15T05:12:57.308Z,99.78
2022-12-15T05:18:19.767Z,99.04
2022-12-15T05:30:32.543Z,98.30
2022-12-15T05:35:35.960Z,98.59
2022-12-15T05:40:39.369Z,99.43
2022-12-15T05:45:42.781Z,99.50
2022-12-15T05:50:46.100Z,99.86
2022-12-15T05:55:49.507Z,99.84
2022-12-15T06:00:52.821Z,99.91
2022-12-15T06:05:56.738Z,99.96
2022-12-15T06:11:00.772Z,99.89
2022-12-15T06:16:07.511Z,100.00
2022-12-15T06:21:14.153Z,100.00
2022-12-15T06:26:23.314Z,100.00
2022-12-15T06:31:26.952Z,100.00
2022-12-15T06:36:33.401Z,100.00
2022-12-15T06:41:37.734Z,100.00
2022-12-15T06:46:41.061Z,100.00
2022-12-15T06:51:45.337Z,100.00
2022-12-15T06:56:50.031Z,100.00
2022-12-15T07:01:53.774Z,100.00
2022-12-15T07:06:57.361Z,100.00
2022-12-15T07:12:00.980Z,99.83
2022-12-15T07:17:04.288Z,99.63
2022-12-15T07:22:07.703Z,99.81
2022-12-15T07:27:10.958Z,99.77
2022-12-15T07:32:15.961Z,99.61
2022-12-15T07:37:19.168Z,99.24
2022-12-15T07:42:22.788Z,99.84
2022-12-15T07:47:28.182Z,99.86
2022-12-15T07:52:31.562Z,99.90
2022-12-15T07:57:34.973Z,99.74
2022-12-15T08:02:41.707Z,99.84
2022-12-15T08:07:45.179Z,99.89
2022-12-15T08:12:48.488Z,99.93
2022-12-15T08:17:52.008Z,99.66
2022-12-15T08:22:55.321Z,99.77
2022-12-15T08:27:58.835Z,99.44
2022-12-15T08:33:03.478Z,99.36
2022-12-15T08:38:06.888Z,99.38
2022-12-15T08:43:10.302Z,99.45
2022-12-15T08:48:13.710Z,99.29
2022-12-15T08:53:32.579Z,99.29
2022-12-15T08:58:36.922Z,99.18
2022-12-15T09:03:41.051Z,99.32
2022-12-15T09:08:44.935Z,99.16
2022-12-15T09:13:53.822Z,98.48
2022-12-15T09:18:59.323Z,98.87
2022-12-15T09:24:03.920Z,99.33
2022-12-15T09:29:07.541Z,99.29
2022-12-15T09:34:16.105Z,99.51
2022-12-15T09:39:19.792Z,99.61
2022-12-15T09:44:25.929Z,99.81
2022-12-15T09:49:44.233Z,99.77
2022-12-15T09:54:47.755Z,99.95
2022-12-15T09:59:51.262Z,99.69
2022-12-15T10:05:02.459Z,99.00
2022-12-15T10:10:12.122Z,98.75
2022-12-15T10:15:27.063Z,98.35
2022-12-15T10:20:32.871Z,98.41
2022-12-15T10:25:36.284Z,99.17
2022-12-15T10:31:08.329Z,98.43
2022-12-15T10:36:16.295Z,98.42
2022-12-15T10:41:22.059Z,98.27
2022-12-15T10:46:30.769Z,98.33
2022-12-15T10:51:48.543Z,98.15
2022-12-15T10:56:53.491Z,98.46
2022-12-15T11:02:26.373Z,98.17
2022-12-15T11:07:42.638Z,97.80
2022-12-15T11:12:59.132Z,97.74
2022-12-15T11:18:06.436Z,98.12
2022-12-15T11:23:36.985Z,98.18
2022-12-15T11:28:51.252Z,98.58
2022-12-15T11:33:55.179Z,99.12
2022-12-15T11:39:40.473Z,99.13
2022-12-15T11:45:08.264Z,99.11
2022-12-15T11:50:26.826Z,99.13
2022-12-15T11:56:02.187Z,98.75
2022-12-15T12:01:11.025Z,98.25
2022-12-15T12:06:40.250Z,98.28
2022-12-15T12:12:05.164Z,97.86
2022-12-15T12:17:21.478Z,98.28
2022-12-15T12:22:57.861Z,98.76
2022-12-15T12:28:21.038Z,98.76
2022-12-15T12:33:46.058Z,98.90
2022-12-15T12:38:56.436Z,98.80
2022-12-15T12:44:09.064Z,98.15
2022-12-15T12:49:33.674Z,98.69
2022-12-15T12:54:37.110Z,98.21
2022-12-15T13:00:18.216Z,97.43
2022-12-15T13:05:32.554Z,97.85
2022-12-15T13:10:40.576Z,98.46
2022-12-15T13:15:50.919Z,98.43
2022-12-15T13:20:57.587Z,98.45
2022-12-15T13:26:12.012Z,98.41
2022-12-15T13:31:21.740Z,98.26
2022-12-15T13:36:39.522Z,97.66
2022-12-15T13:42:23.533Z,97.07
2022-12-15T13:47:26.501Z,97.40
2022-12-15T13:53:17.329Z,97.42
2022-12-15T13:58:16.431Z,97.38
2022-12-15T14:03:20.305Z,97.32
2022-12-15T14:08:26.732Z,97.42
2022-12-15T14:13:36.526Z,97.53
2022-12-15T14:18:42.165Z,97.29
2022-12-15T14:24:19.262Z,96.63
2022-12-15T14:29:11.855Z,95.99
2022-12-15T14:34:23.941Z,96.51
2022-12-15T14:39:38.003Z,96.69
2022-12-15T14:44:49.951Z,96.57
2022-12-15T14:49:57.295Z,96.38
2022-12-15T14:55:03.528Z,96.63
2022-12-15T15:00:30.575Z,96.44
2022-12-15T15:05:34.114Z,96.66
2022-12-15T15:10:39.031Z,96.18
2022-12-15T15:15:42.753Z,96.47
2022-12-15T15:20:58.866Z,96.46
2022-12-15T15:26:04.836Z,96.81
2022-12-15T15:31:41.061Z,96.69
2022-12-15T15:36:45.361Z,96.34
2022-12-15T15:41:48.739Z,96.20
2022-12-15T15:46:52.897Z,96.58
2022-12-15T15:51:56.819Z,96.69
2022-12-15T15:57:00.137Z,96.69
2022-12-15T16:02:03.783Z,96.42
2022-12-15T16:07:15.969Z,96.77
2022-12-15T16:12:42.647Z,96.99
2022-12-15T16:17:47.988Z,97.10
2022-12-15T16:22:57.850Z,97.56
2022-12-15T16:28:01.621Z,96.96
2022-12-15T16:33:05.085Z,96.87
2022-12-15T16:38:31.355Z,96.95
2022-12-15T16:43:39.234Z,96.58
2022-12-15T16:48:45.221Z,96.87
2022-12-15T16:53:48.637Z,97.15
2022-12-15T16:58:57.497Z,96.81
2022-12-15T17:04:12.848Z,97.29
2022-12-15T17:09:23.871Z,97.06
2022-12-15T17:14:27.280Z,97.38
2022-12-15T17:19:30.594Z,97.52
2022-12-15T17:24:34.306Z,97.36
2022-12-15T17:29:37.822Z,97.09
2022-12-15T17:34:41.235Z,97.22
2022-12-15T17:39:51.247Z,97.06
2022-12-15T17:44:55.074Z,97.16
2022-12-15T17:49:58.548Z,97.18
2022-12-15T17:55:03.997Z,97.29
2022-12-15T18:00:44.451Z,97.31
2022-12-15T18:05:52.813Z,97.29
2022-12-15T18:10:58.171Z,97.14
2022-12-15T18:16:04.512Z,97.25
2022-12-15T18:21:14.474Z,96.89
2022-12-15T18:26:17.833Z,97.06
2022-12-15T18:31:29.445Z,97.67
2022-12-15T18:36:32.848Z,97.23
2022-12-15T18:41:36.464Z,96.97
2022-12-15T18:46:44.684Z,97.61
2022-12-15T18:51:51.282Z,97.48
2022-12-15T18:56:54.873Z,97.25
2022-12-15T19:01:58.429Z,96.93
2022-12-15T19:07:06.842Z,96.82
2022-12-15T19:12:19.371Z,97.17
2022-12-15T19:17:43.199Z,97.13
2022-12-15T19:22:48.930Z,97.32
2022-12-15T19:28:21.087Z,97.60
2022-12-15T19:33:24.597Z,97.55
2022-12-15T19:38:32.313Z,97.59
2022-12-15T19:43:36.140Z,97.93
2022-12-15T19:48:39.855Z,97.83
2022-12-15T19:53:44.088Z,97.95
2022-12-15T19:58:47.706Z,97.68
2022-12-15T20:03:53.479Z,97.70
2022-12-15T20:08:57.194Z,97.88
2022-12-15T20:14:02.248Z,98.11
2022-12-15T20:19:05.868Z,98.38
2022-12-15T20:24:20.443Z,98.31
2022-12-15T20:29:28.677Z,97.36
2022-12-15T20:34:31.974Z,97.13
2022-12-15T20:39:35.288Z,97.14
2022-12-15T20:44:38.699Z,97.12
2022-12-15T20:49:42.012Z,96.98
2022-12-15T20:54:45.323Z,97.28
2022-12-15T20:59:48.733Z,97.21
2022-12-15T21:04:52.045Z,97.45
2022-12-15T21:09:55.458Z,97.28
2022-12-15T21:14:58.767Z,96.91
2022-12-15T21:20:02.797Z,96.88
2022-12-15T21:25:17.062Z,97.44
2022-12-15T21:30:21.909Z,97.39
2022-12-15T21:35:30.182Z,97.47
2022-12-15T21:40:35.391Z,97.52
2022-12-15T21:45:38.907Z,97.78
2022-12-15T21:50:44.813Z,98.20
2022-12-15T21:55:48.090Z,97.68
2022-12-15T22:00:51.501Z,97.02
2022-12-15T22:05:54.814Z,97.04
2022-12-15T22:10:58.228Z,97.54
2022-12-15T22:16:01.617Z,97.58
2022-12-15T22:21:05.356Z,97.40
2022-12-15T22:26:27.308Z,97.26
2022-12-15T22:31:30.676Z,96.81
2022-12-15T22:36:34.132Z,97.14
2022-12-15T22:41:42.789Z,97.31
2022-12-15T22:46:47.050Z,97.18
2022-12-15T22:51:50.208Z,96.83
2022-12-15T22:57:06.626Z,96.72
2022-12-15T23:02:11.190Z,97.35
2022-12-15T23:07:14.879Z,97.50
2022-12-15T23:12:18.197Z,97.38
2022-12-15T23:17:21.609Z,97.46
2022-12-15T23:22:24.920Z,97.87
2022-12-15T23:27:28.334Z,97.80
2022-12-15T23:32:31.749Z,97.61
2022-12-15T23:37:35.265Z,97.25
2022-12-15T23:42:38.675Z,97.38
2022-12-15T23:47:42.293Z,97.46
2022-12-15T23:52:50.268Z,97.19
2022-12-15T23:57:59.256Z,97.56
